Cornell, Iowa
Current Conditions -  °F | °C
As of 12:53 PM on Friday 28 Nov 2014 (Local Time) from KSPW Reporting Station
Clear Clear  
Wind Chill: 20°   Ceiling: Unl
Heat Index: 29°   Visibility: 10mi
Dew Point: 23°   Wind: 10mph
Humidity: 78%   Direction: 130°SE
Pressure: 29.76"   Gusts: NA
Location:  42.9244°N, 95.1316°W
Report Text: KSPW 281853Z AUTO 13009KT 10SM CLR M02/M05 A2976 RMK AO2 SLP099 T10171050 TSNO
Loading
Personal Weather Stations






























Interactive Weather Map New forecast layout! Learn more

10-Day Weather Forecast

Advertisements
Track Severe Weather on mobile